PAA441 KLAX-KMIA
Flight info
| Callsign | PAA441 |
|---|---|
| Flight time | 4h 20m |
| Altitude | 35000 |
| Route | LAXX1 TRM BLH J169 KOFFA J65 TCS J108 GINGR/N0480F370 J108 INK J15 FUSCO Q4 CLL LEV Q100 SRQ PALMZ2 |
| Aircraft | L101/H-SDFHIRWXY/S |
Departure
| Time | 2026-05-07 23:13 |
|---|---|
| Airport | Los Angeles International Airport (KLAX) |
Arrival
| Time | 2026-05-08 03:33 |
|---|---|
| Airport | Miami International Airport (KMIA) |
| Time | Latitude | Longitude | Altitude | Speed | Heading |
|---|---|---|---|---|---|
| 2026-05-07 22:41 | 33.94475 | -118.41001 | 98 ft | 0 kts | 261° |
| 2026-05-07 22:58 | 33.94475 | -118.41000 | 98 ft | 1 kts | 261° |
| 2026-05-07 22:58 | 33.94478 | -118.40971 | 93 ft | 2 kts | 262° |
| 2026-05-07 22:59 | 33.94482 | -118.40940 | 98 ft | 3 kts | 262° |
| 2026-05-07 22:59 | 33.94486 | -118.40914 | 96 ft | 4 kts | 246° |
| 2026-05-07 22:59 | 33.94501 | -118.40890 | 99 ft | 4 kts | 204° |
| 2026-05-07 22:59 | 33.94527 | -118.40884 | 97 ft | 4 kts | 175° |
| 2026-05-07 23:00 | 33.94552 | -118.40888 | 98 ft | 4 kts | 173° |
| 2026-05-07 23:00 | 33.94579 | -118.40892 | 97 ft | 4 kts | 173° |
| 2026-05-07 23:00 | 33.94606 | -118.40896 | 97 ft | 4 kts | 173° |
| 2026-05-07 23:00 | 33.94633 | -118.40900 | 99 ft | 4 kts | 173° |
| 2026-05-07 23:01 | 33.94660 | -118.40904 | 98 ft | 4 kts | 173° |
| 2026-05-07 23:01 | 33.94687 | -118.40908 | 98 ft | 4 kts | 173° |
| 2026-05-07 23:01 | 33.94711 | -118.40912 | 98 ft | 4 kts | 160° |
| 2026-05-07 23:01 | 33.94734 | -118.40928 | 98 ft | 4 kts | 127° |
| 2026-05-07 23:02 | 33.94743 | -118.40955 | 100 ft | 4 kts | 89° |
| 2026-05-07 23:02 | 33.94741 | -118.40985 | 97 ft | 4 kts | 83° |
| 2026-05-07 23:02 | 33.94739 | -118.40999 | 98 ft | 0 kts | 83° |
| 2026-05-07 23:06 | 33.94740 | -118.40993 | 98 ft | 3 kts | 83° |
| 2026-05-07 23:07 | 33.94744 | -118.40953 | 98 ft | 7 kts | 79° |
| 2026-05-07 23:07 | 33.94770 | -118.40889 | 99 ft | 10 kts | 32° |
| 2026-05-07 23:07 | 33.94838 | -118.40865 | 99 ft | 11 kts | 46° |
| 2026-05-07 23:07 | 33.94850 | -118.40767 | 99 ft | 14 kts | 87° |
| 2026-05-07 23:08 | 33.94860 | -118.40630 | 99 ft | 18 kts | 77° |
| 2026-05-07 23:08 | 33.94878 | -118.40487 | 101 ft | 22 kts | 82° |
| 2026-05-07 23:08 | 33.94915 | -118.40300 | 100 ft | 20 kts | 52° |
| 2026-05-07 23:08 | 33.94914 | -118.40187 | 101 ft | 16 kts | 100° |
| 2026-05-07 23:09 | 33.94919 | -118.40052 | 100 ft | 18 kts | 82° |
| 2026-05-07 23:09 | 33.94928 | -118.39971 | 98 ft | 7 kts | 78° |
| 2026-05-07 23:09 | 33.94943 | -118.39936 | 100 ft | 0 kts | 46° |
| 2026-05-07 23:10 | 33.94952 | -118.39928 | 100 ft | 4 kts | 32° |
| 2026-05-07 23:10 | 33.94991 | -118.39915 | 99 ft | 8 kts | 3° |
| 2026-05-07 23:11 | 33.95038 | -118.39927 | 99 ft | 6 kts | 328° |
| 2026-05-07 23:11 | 33.95051 | -118.39954 | 98 ft | 5 kts | 281° |
| 2026-05-07 23:11 | 33.95043 | -118.39996 | 99 ft | 6 kts | 252° |
| 2026-05-07 23:11 | 33.95039 | -118.40015 | 99 ft | 0 kts | 257° |
| 2026-05-07 23:12 | 33.95038 | -118.40019 | 100 ft | 2 kts | 258° |
| 2026-05-07 23:12 | 33.95012 | -118.40233 | 103 ft | 63 kts | 264° |
| 2026-05-07 23:12 | 33.94922 | -118.41103 | 103 ft | 143 kts | 262° |
| 2026-05-07 23:13 | 33.94799 | -118.42231 | 434 ft | 177 kts | 263° |
| 2026-05-07 23:13 | 33.94624 | -118.43757 | 1419 ft | 189 kts | 262° |
| 2026-05-07 23:13 | 33.94440 | -118.45361 | 2570 ft | 196 kts | 263° |
| 2026-05-07 23:13 | 33.94256 | -118.47021 | 3335 ft | 217 kts | 264° |
| 2026-05-07 23:14 | 33.94069 | -118.48957 | 4124 ft | 234 kts | 264° |
| 2026-05-07 23:14 | 33.93865 | -118.51035 | 4470 ft | 269 kts | 263° |
| 2026-05-07 23:14 | 33.93607 | -118.53348 | 4746 ft | 296 kts | 263° |
| 2026-05-07 23:14 | 33.93308 | -118.55936 | 4892 ft | 328 kts | 263° |
| 2026-05-07 23:15 | 33.92976 | -118.58778 | 5036 ft | 353 kts | 262° |
| 2026-05-07 23:15 | 33.92647 | -118.61553 | 5929 ft | 309 kts | 263° |
| 2026-05-07 23:15 | 33.92366 | -118.63878 | 7307 ft | 259 kts | 262° |
| 2026-05-07 23:15 | 33.92101 | -118.66031 | 7689 ft | 266 kts | 263° |
| 2026-05-07 23:16 | 33.91912 | -118.67510 | 7641 ft | 275 kts | 260° |
| 2026-05-07 23:16 | 33.91283 | -118.69763 | 7450 ft | 295 kts | 240° |
| 2026-05-07 23:16 | 33.89947 | -118.71686 | 7276 ft | 303 kts | 220° |
| 2026-05-07 23:16 | 33.88162 | -118.72897 | 7112 ft | 290 kts | 198° |
| 2026-05-07 23:17 | 33.86199 | -118.73229 | 7078 ft | 285 kts | 182° |
| 2026-05-07 23:17 | 33.84212 | -118.73078 | 7083 ft | 288 kts | 175° |
| 2026-05-07 23:17 | 33.82221 | -118.72758 | 7049 ft | 289 kts | 172° |
| 2026-05-07 23:17 | 33.80235 | -118.72365 | 7056 ft | 289 kts | 170° |
| 2026-05-07 23:18 | 33.78301 | -118.71746 | 7164 ft | 291 kts | 155° |
| 2026-05-07 23:18 | 33.76660 | -118.70370 | 7278 ft | 290 kts | 132° |
| 2026-05-07 23:18 | 33.75596 | -118.68333 | 7444 ft | 288 kts | 108° |
| 2026-05-07 23:18 | 33.75193 | -118.65997 | 7925 ft | 288 kts | 93° |
| 2026-05-07 23:19 | 33.75219 | -118.63584 | 8472 ft | 292 kts | 83° |
| 2026-05-07 23:19 | 33.75474 | -118.61158 | 8969 ft | 293 kts | 79° |
| 2026-05-07 23:19 | 33.75901 | -118.58769 | 9463 ft | 291 kts | 72° |
| 2026-05-07 23:19 | 33.76528 | -118.56459 | 9975 ft | 291 kts | 70° |
| 2026-05-07 23:20 | 33.77087 | -118.54122 | 10440 ft | 292 kts | 75° |
| 2026-05-07 23:20 | 33.77485 | -118.51719 | 10915 ft | 294 kts | 80° |
| 2026-05-07 23:20 | 33.77737 | -118.49278 | 11388 ft | 295 kts | 82° |
| 2026-05-07 23:20 | 33.77876 | -118.47310 | 11777 ft | 296 kts | 84° |
| 2026-05-07 23:21 | 33.77991 | -118.44942 | 12253 ft | 298 kts | 85° |
| 2026-05-07 23:21 | 33.78071 | -118.42429 | 12763 ft | 310 kts | 86° |
| 2026-05-07 23:21 | 33.78130 | -118.39716 | 13276 ft | 338 kts | 87° |
| 2026-05-07 23:21 | 33.78173 | -118.36776 | 13795 ft | 365 kts | 88° |
| 2026-05-07 23:22 | 33.78199 | -118.33654 | 14244 ft | 380 kts | 88° |
| 2026-05-07 23:22 | 33.78214 | -118.30446 | 14716 ft | 387 kts | 89° |
| 2026-05-07 23:22 | 33.78224 | -118.27197 | 15192 ft | 391 kts | 88° |
| 2026-05-07 23:22 | 33.78236 | -118.23917 | 15675 ft | 394 kts | 88° |
| 2026-05-07 23:23 | 33.78257 | -118.20616 | 16141 ft | 396 kts | 88° |
| 2026-05-07 23:23 | 33.78315 | -118.17297 | 16650 ft | 399 kts | 87° |
| 2026-05-07 23:23 | 33.78381 | -118.13951 | 17157 ft | 402 kts | 87° |
| 2026-05-07 23:23 | 33.78451 | -118.10817 | 17607 ft | 404 kts | 87° |
| 2026-05-07 23:24 | 33.78545 | -118.07419 | 18134 ft | 407 kts | 86° |
| 2026-05-07 23:24 | 33.78647 | -118.04004 | 18595 ft | 410 kts | 87° |
| 2026-05-07 23:24 | 33.78643 | -118.00575 | 19062 ft | 414 kts | 93° |
| 2026-05-07 23:24 | 33.78055 | -117.97174 | 19506 ft | 418 kts | 103° |
| 2026-05-07 23:25 | 33.77427 | -117.93981 | 19940 ft | 421 kts | 97° |
| 2026-05-07 23:25 | 33.77157 | -117.90756 | 20417 ft | 422 kts | 90° |
| 2026-05-07 23:25 | 33.77086 | -117.87442 | 20877 ft | 425 kts | 89° |
| 2026-05-07 23:25 | 33.76989 | -117.84110 | 21347 ft | 429 kts | 91° |
| 2026-05-07 23:26 | 33.76788 | -117.80732 | 21822 ft | 433 kts | 93° |
| 2026-05-07 23:26 | 33.76531 | -117.77338 | 22293 ft | 437 kts | 93° |
| 2026-05-07 23:26 | 33.76287 | -117.74177 | 22744 ft | 440 kts | 93° |
| 2026-05-07 23:26 | 33.76039 | -117.70709 | 23240 ft | 443 kts | 92° |
| 2026-05-07 23:27 | 33.75584 | -117.63699 | 24139 ft | 456 kts | 92° |
| 2026-05-07 23:27 | 33.75359 | -117.60125 | 24637 ft | 463 kts | 92° |
| 2026-05-07 23:27 | 33.75129 | -117.56519 | 25366 ft | 464 kts | 92° |
| 2026-05-07 23:28 | 33.74896 | -117.52889 | 25967 ft | 468 kts | 92° |
| 2026-05-07 23:28 | 33.74677 | -117.49507 | 26504 ft | 472 kts | 92° |
| 2026-05-07 23:28 | 33.74436 | -117.45831 | 27100 ft | 474 kts | 92° |
| 2026-05-07 23:28 | 33.74192 | -117.42097 | 27662 ft | 478 kts | 92° |
| 2026-05-07 23:29 | 33.73990 | -117.39003 | 28110 ft | 482 kts | 92° |
| 2026-05-07 23:29 | 33.73756 | -117.35418 | 28634 ft | 485 kts | 92° |
| 2026-05-07 23:29 | 33.73512 | -117.31669 | 29178 ft | 488 kts | 92° |
| 2026-05-07 23:29 | 33.73244 | -117.27574 | 30018 ft | 485 kts | 92° |
| 2026-05-07 23:30 | 33.73003 | -117.23885 | 30673 ft | 482 kts | 92° |
| 2026-05-07 23:30 | 33.72758 | -117.20145 | 31315 ft | 480 kts | 92° |
| 2026-05-07 23:30 | 33.72521 | -117.16440 | 32008 ft | 478 kts | 91° |
| 2026-05-07 23:30 | 33.72297 | -117.12697 | 32657 ft | 475 kts | 91° |
| 2026-05-07 23:31 | 33.72098 | -117.09002 | 33220 ft | 473 kts | 92° |
| 2026-05-07 23:31 | 33.71724 | -117.05332 | 33790 ft | 472 kts | 96° |
| 2026-05-07 23:31 | 33.71200 | -117.01679 | 34281 ft | 472 kts | 98° |
| 2026-05-07 23:31 | 33.70643 | -116.98067 | 34656 ft | 473 kts | 98° |
| 2026-05-07 23:32 | 33.70095 | -116.94408 | 34816 ft | 475 kts | 97° |
| 2026-05-07 23:32 | 33.69581 | -116.90710 | 34937 ft | 475 kts | 96° |
| 2026-05-07 23:32 | 33.68664 | -116.83105 | 34990 ft | 475 kts | 95° |
| 2026-05-07 23:33 | 33.67900 | -116.75729 | 34986 ft | 473 kts | 93° |
| 2026-05-07 23:33 | 33.67216 | -116.68377 | 34970 ft | 473 kts | 93° |
| 2026-05-07 23:34 | 33.66586 | -116.61003 | 34930 ft | 472 kts | 92° |
| 2026-05-07 23:34 | 33.65975 | -116.53606 | 34938 ft | 473 kts | 92° |
| 2026-05-07 23:35 | 33.65333 | -116.45745 | 34903 ft | 473 kts | 92° |
| 2026-05-07 23:35 | 33.64697 | -116.38179 | 34905 ft | 474 kts | 93° |
| 2026-05-07 23:36 | 33.64026 | -116.30318 | 34881 ft | 474 kts | 93° |
| 2026-05-07 23:36 | 33.63351 | -116.22459 | 34837 ft | 473 kts | 92° |
| 2026-05-07 23:37 | 33.62706 | -116.14636 | 34831 ft | 470 kts | 90° |
| 2026-05-07 23:37 | 33.62543 | -116.06834 | 34839 ft | 467 kts | 87° |
| 2026-05-07 23:38 | 33.62464 | -115.99022 | 34832 ft | 468 kts | 88° |
| 2026-05-07 23:38 | 33.62308 | -115.91196 | 34844 ft | 469 kts | 88° |
| 2026-05-07 23:39 | 33.62408 | -115.83427 | 34849 ft | 465 kts | 85° |
| 2026-05-07 23:39 | 33.62424 | -115.75651 | 34866 ft | 466 kts | 87° |
| 2026-05-07 23:40 | 33.62325 | -115.67880 | 34867 ft | 466 kts | 87° |
| 2026-05-07 23:40 | 33.62222 | -115.60105 | 34866 ft | 466 kts | 87° |
| 2026-05-07 23:41 | 33.62135 | -115.52324 | 34865 ft | 466 kts | 87° |
| 2026-05-07 23:41 | 33.62057 | -115.44602 | 34868 ft | 466 kts | 87° |
| 2026-05-07 23:42 | 33.61979 | -115.36826 | 34863 ft | 466 kts | 87° |
| 2026-05-07 23:42 | 33.61901 | -115.29060 | 34874 ft | 465 kts | 87° |
| 2026-05-07 23:43 | 33.61807 | -115.21322 | 34869 ft | 463 kts | 89° |
| 2026-05-07 23:43 | 33.61120 | -115.13594 | 34859 ft | 467 kts | 94° |
| 2026-05-07 23:44 | 33.60404 | -115.05869 | 34862 ft | 465 kts | 90° |
| 2026-05-07 23:44 | 33.60151 | -114.98146 | 34868 ft | 464 kts | 87° |
| 2026-05-07 23:45 | 33.59997 | -114.90420 | 34862 ft | 463 kts | 87° |
| 2026-05-07 23:45 | 33.59845 | -114.82694 | 34860 ft | 463 kts | 87° |
| 2026-05-07 23:46 | 33.59672 | -114.74970 | 34858 ft | 464 kts | 89° |
| 2026-05-07 23:46 | 33.59006 | -114.67265 | 34856 ft | 467 kts | 97° |
| 2026-05-07 23:47 | 33.58149 | -114.59567 | 34863 ft | 464 kts | 90° |
| 2026-05-07 23:47 | 33.57682 | -114.51836 | 34860 ft | 465 kts | 91° |
| 2026-05-07 23:48 | 33.57043 | -114.44115 | 34862 ft | 465 kts | 92° |
| 2026-05-07 23:48 | 33.56389 | -114.36396 | 34872 ft | 465 kts | 91° |
| 2026-05-07 23:49 | 33.55766 | -114.28730 | 34869 ft | 465 kts | 91° |
| 2026-05-07 23:49 | 33.55149 | -114.21023 | 34871 ft | 464 kts | 91° |
| 2026-05-07 23:50 | 33.54533 | -114.13320 | 34873 ft | 464 kts | 91° |
| 2026-05-07 23:50 | 33.53914 | -114.05614 | 34886 ft | 464 kts | 91° |
| 2026-05-07 23:51 | 33.53297 | -113.97914 | 34887 ft | 464 kts | 91° |
| 2026-05-07 23:51 | 33.52694 | -113.90230 | 34918 ft | 463 kts | 91° |
| 2026-05-07 23:52 | 33.52098 | -113.82537 | 34943 ft | 463 kts | 91° |
| 2026-05-07 23:52 | 33.51508 | -113.74847 | 34985 ft | 464 kts | 91° |
| 2026-05-07 23:53 | 33.50914 | -113.67155 | 34995 ft | 463 kts | 91° |
| 2026-05-07 23:53 | 33.50314 | -113.59474 | 35000 ft | 463 kts | 91° |
| 2026-05-07 23:54 | 33.49619 | -113.51850 | 34980 ft | 466 kts | 98° |
| 2026-05-07 23:54 | 33.47816 | -113.44308 | 34956 ft | 468 kts | 98° |
| 2026-05-07 23:55 | 33.46857 | -113.36680 | 34847 ft | 460 kts | 90° |
| 2026-05-07 23:55 | 33.46444 | -113.29102 | 34854 ft | 458 kts | 88° |
| 2026-05-07 23:56 | 33.46207 | -113.21477 | 34842 ft | 458 kts | 88° |
| 2026-05-07 23:56 | 33.46021 | -113.13848 | 34851 ft | 458 kts | 88° |
| 2026-05-07 23:57 | 33.45845 | -113.06235 | 34845 ft | 457 kts | 88° |
| 2026-05-07 23:57 | 33.45663 | -112.98632 | 34855 ft | 457 kts | 88° |
| 2026-05-07 23:58 | 33.45482 | -112.91023 | 34866 ft | 456 kts | 87° |
| 2026-05-07 23:58 | 33.45313 | -112.83708 | 34873 ft | 457 kts | 87° |
| 2026-05-07 23:59 | 33.45137 | -112.76112 | 34884 ft | 457 kts | 87° |
| 2026-05-07 23:59 | 33.44946 | -112.68496 | 34877 ft | 458 kts | 87° |
| 2026-05-08 00:00 | 33.44756 | -112.60885 | 34879 ft | 458 kts | 87° |
| 2026-05-08 00:00 | 33.44576 | -112.53268 | 34874 ft | 458 kts | 87° |
| 2026-05-08 00:01 | 33.44421 | -112.46380 | 34878 ft | 458 kts | 87° |
| 2026-05-08 00:01 | 33.44259 | -112.38779 | 34881 ft | 456 kts | 87° |
| 2026-05-08 00:02 | 33.44094 | -112.31185 | 34878 ft | 456 kts | 87° |
| 2026-05-08 00:02 | 33.43921 | -112.23597 | 34831 ft | 456 kts | 87° |
| 2026-05-08 00:03 | 33.43774 | -112.17292 | 34830 ft | 455 kts | 87° |
| 2026-05-08 00:03 | 33.43579 | -112.09722 | 34856 ft | 454 kts | 88° |
| 2026-05-08 00:04 | 33.43372 | -112.02177 | 34843 ft | 453 kts | 88° |
| 2026-05-08 00:04 | 33.43163 | -111.94636 | 34844 ft | 453 kts | 88° |
| 2026-05-08 00:05 | 33.43206 | -111.87119 | 34844 ft | 450 kts | 84° |
| 2026-05-08 00:05 | 33.43170 | -111.79594 | 34871 ft | 453 kts | 88° |
| 2026-05-08 00:06 | 33.43002 | -111.72053 | 34866 ft | 452 kts | 87° |
| 2026-05-08 00:06 | 33.42947 | -111.64812 | 34869 ft | 452 kts | 86° |
| 2026-05-08 00:07 | 33.42886 | -111.57241 | 34860 ft | 452 kts | 87° |
| 2026-05-08 00:07 | 33.42809 | -111.49776 | 34824 ft | 452 kts | 87° |
| 2026-05-08 00:08 | 33.42730 | -111.42258 | 34815 ft | 451 kts | 86° |
| 2026-05-08 00:08 | 33.42654 | -111.34741 | 34832 ft | 452 kts | 87° |
| 2026-05-08 00:09 | 33.42578 | -111.27223 | 34847 ft | 452 kts | 87° |
| 2026-05-08 00:09 | 33.42504 | -111.19709 | 34837 ft | 451 kts | 87° |
| 2026-05-08 00:10 | 33.42431 | -111.12186 | 34852 ft | 452 kts | 87° |
| 2026-05-08 00:10 | 33.42360 | -111.04643 | 34849 ft | 454 kts | 87° |
| 2026-05-08 00:11 | 33.42289 | -110.97091 | 34853 ft | 454 kts | 87° |
| 2026-05-08 00:11 | 33.42216 | -110.89539 | 34845 ft | 454 kts | 87° |
| 2026-05-08 00:12 | 33.42142 | -110.81987 | 34852 ft | 453 kts | 87° |
| 2026-05-08 00:12 | 33.42072 | -110.74434 | 34856 ft | 453 kts | 87° |
| 2026-05-08 00:13 | 33.42002 | -110.66882 | 34841 ft | 454 kts | 87° |
| 2026-05-08 00:13 | 33.41932 | -110.59330 | 34846 ft | 454 kts | 87° |
| 2026-05-08 00:14 | 33.41864 | -110.51791 | 34851 ft | 454 kts | 87° |
| 2026-05-08 00:14 | 33.41797 | -110.44228 | 34845 ft | 454 kts | 88° |
| 2026-05-08 00:15 | 33.41729 | -110.36725 | 34835 ft | 454 kts | 87° |
| 2026-05-08 00:15 | 33.41663 | -110.29168 | 34860 ft | 454 kts | 87° |
| 2026-05-08 00:16 | 33.41596 | -110.21620 | 34855 ft | 454 kts | 88° |
| 2026-05-08 00:16 | 33.41531 | -110.14062 | 34881 ft | 455 kts | 87° |
| 2026-05-08 00:17 | 33.41468 | -110.06487 | 34875 ft | 455 kts | 88° |
| 2026-05-08 00:17 | 33.41407 | -109.99184 | 34887 ft | 455 kts | 88° |
| 2026-05-08 00:18 | 33.41346 | -109.91605 | 34900 ft | 456 kts | 88° |
| 2026-05-08 00:18 | 33.41284 | -109.84026 | 34893 ft | 455 kts | 88° |
| 2026-05-08 00:19 | 33.41224 | -109.76457 | 34892 ft | 456 kts | 88° |
| 2026-05-08 00:19 | 33.41171 | -109.68813 | 34898 ft | 460 kts | 88° |
| 2026-05-08 00:20 | 33.41118 | -109.61149 | 34898 ft | 461 kts | 88° |
| 2026-05-08 00:20 | 33.41065 | -109.53483 | 34908 ft | 461 kts | 89° |
| 2026-05-08 00:21 | 33.41020 | -109.45802 | 34889 ft | 466 kts | 89° |
| 2026-05-08 00:21 | 33.40975 | -109.38295 | 34891 ft | 468 kts | 89° |
| 2026-05-08 00:22 | 33.40921 | -109.30490 | 34903 ft | 469 kts | 90° |
| 2026-05-08 00:22 | 33.40848 | -109.22674 | 34880 ft | 470 kts | 89° |
| 2026-05-08 00:23 | 33.40757 | -109.14854 | 34895 ft | 470 kts | 90° |
| 2026-05-08 00:23 | 33.40651 | -109.07041 | 34901 ft | 472 kts | 91° |
| 2026-05-08 00:24 | 33.40525 | -108.99181 | 34888 ft | 472 kts | 91° |
| 2026-05-08 00:24 | 33.40380 | -108.91315 | 34902 ft | 472 kts | 91° |
| 2026-05-08 00:25 | 33.40143 | -108.87402 | 34849 ft | 473 kts | 102° |
| 2026-05-08 00:25 | 33.39039 | -108.83726 | 34874 ft | 469 kts | 117° |
| 2026-05-08 00:25 | 33.36086 | -108.76721 | 34936 ft | 473 kts | 115° |
| 2026-05-08 00:26 | 33.33765 | -108.69347 | 34834 ft | 477 kts | 96° |
| 2026-05-08 00:26 | 33.33741 | -108.65399 | 34881 ft | 475 kts | 85° |
| 2026-05-08 00:26 | 33.34062 | -108.61444 | 34933 ft | 480 kts | 85° |
| 2026-05-08 00:27 | 33.34139 | -108.53456 | 34929 ft | 481 kts | 93° |
| 2026-05-08 00:27 | 33.33779 | -108.45466 | 34926 ft | 481 kts | 93° |
| 2026-05-08 00:28 | 33.33486 | -108.37436 | 34926 ft | 488 kts | 94° |
| 2026-05-08 00:28 | 33.33161 | -108.29281 | 34916 ft | 493 kts | 95° |
| 2026-05-08 00:29 | 33.32814 | -108.21092 | 34916 ft | 494 kts | 95° |
| 2026-05-08 00:29 | 33.32465 | -108.12902 | 34921 ft | 493 kts | 95° |
| 2026-05-08 00:30 | 33.32107 | -108.04708 | 34918 ft | 494 kts | 95° |
| 2026-05-08 00:30 | 33.31659 | -107.96526 | 34916 ft | 493 kts | 96° |
| 2026-05-08 00:31 | 33.31157 | -107.88337 | 34912 ft | 493 kts | 95° |
| 2026-05-08 00:31 | 33.30771 | -107.80151 | 34911 ft | 493 kts | 95° |
| 2026-05-08 00:32 | 33.30404 | -107.71956 | 34896 ft | 494 kts | 95° |
| 2026-05-08 00:32 | 33.30033 | -107.63772 | 34919 ft | 497 kts | 95° |
| 2026-05-08 00:33 | 33.29649 | -107.55450 | 34940 ft | 498 kts | 95° |
| 2026-05-08 00:33 | 33.29272 | -107.47238 | 34971 ft | 498 kts | 95° |
| 2026-05-08 00:34 | 33.28886 | -107.38969 | 34991 ft | 498 kts | 96° |
| 2026-05-08 00:34 | 33.28437 | -107.30671 | 35011 ft | 500 kts | 101° |
| 2026-05-08 00:35 | 33.26759 | -107.22673 | 35025 ft | 496 kts | 110° |
| 2026-05-08 00:35 | 33.24917 | -107.14701 | 35015 ft | 501 kts | 109° |
| 2026-05-08 00:36 | 33.23101 | -107.06653 | 34969 ft | 502 kts | 110° |
| 2026-05-08 00:36 | 33.21169 | -106.98623 | 34924 ft | 505 kts | 111° |
| 2026-05-08 00:37 | 33.19211 | -106.90563 | 34894 ft | 506 kts | 111° |
| 2026-05-08 00:38 | 33.16263 | -106.78467 | 34863 ft | 506 kts | 111° |
| 2026-05-08 00:38 | 33.14296 | -106.70459 | 34876 ft | 506 kts | 111° |
| 2026-05-08 00:39 | 33.12311 | -106.62386 | 34878 ft | 508 kts | 111° |
| 2026-05-08 00:39 | 33.10318 | -106.54307 | 34880 ft | 509 kts | 111° |
| 2026-05-08 00:40 | 33.08311 | -106.46175 | 34872 ft | 512 kts | 112° |
| 2026-05-08 00:40 | 33.06287 | -106.38032 | 34889 ft | 513 kts | 112° |
| 2026-05-08 00:41 | 33.04252 | -106.29861 | 34950 ft | 515 kts | 113° |
| 2026-05-08 00:41 | 33.02204 | -106.21665 | 34978 ft | 516 kts | 113° |
| 2026-05-08 00:42 | 33.00149 | -106.13465 | 35006 ft | 517 kts | 113° |
| 2026-05-08 00:42 | 32.98088 | -106.05260 | 35020 ft | 517 kts | 113° |
| 2026-05-08 00:43 | 32.96023 | -105.97068 | 34913 ft | 517 kts | 113° |
| 2026-05-08 00:43 | 32.93944 | -105.88848 | 34948 ft | 519 kts | 114° |
| 2026-05-08 00:44 | 32.91850 | -105.80603 | 34948 ft | 522 kts | 114° |
| 2026-05-08 00:44 | 32.89739 | -105.72324 | 34967 ft | 523 kts | 114° |
| 2026-05-08 00:45 | 32.87643 | -105.64093 | 34944 ft | 523 kts | 114° |
| 2026-05-08 00:45 | 32.85034 | -105.56122 | 34969 ft | 512 kts | 125° |
| 2026-05-08 00:46 | 32.81821 | -105.48579 | 34949 ft | 512 kts | 125° |
| 2026-05-08 00:46 | 32.78620 | -105.41014 | 34949 ft | 513 kts | 124° |
| 2026-05-08 00:47 | 32.75624 | -105.33299 | 34941 ft | 515 kts | 123° |
| 2026-05-08 00:47 | 32.72565 | -105.25618 | 34916 ft | 514 kts | 125° |
| 2026-05-08 00:48 | 32.69420 | -105.17972 | 34928 ft | 516 kts | 125° |
| 2026-05-08 00:48 | 32.66277 | -105.10304 | 34930 ft | 516 kts | 125° |
| 2026-05-08 00:49 | 32.63135 | -105.02663 | 34933 ft | 516 kts | 125° |
| 2026-05-08 00:49 | 32.59978 | -104.95018 | 34929 ft | 516 kts | 125° |
| 2026-05-08 00:50 | 32.56817 | -104.87376 | 34920 ft | 516 kts | 126° |
| 2026-05-08 00:50 | 32.54191 | -104.81045 | 34924 ft | 515 kts | 126° |
| 2026-05-08 00:51 | 32.51027 | -104.73432 | 34923 ft | 515 kts | 126° |
| 2026-05-08 00:51 | 32.47856 | -104.65816 | 34930 ft | 515 kts | 126° |
| 2026-05-08 00:52 | 32.44685 | -104.58214 | 34933 ft | 515 kts | 126° |
| 2026-05-08 00:52 | 32.41504 | -104.50603 | 34930 ft | 515 kts | 126° |
| 2026-05-08 00:53 | 32.38321 | -104.43007 | 34927 ft | 515 kts | 126° |
| 2026-05-08 00:53 | 32.35138 | -104.35421 | 34923 ft | 515 kts | 126° |
| 2026-05-08 00:54 | 32.31949 | -104.27838 | 35018 ft | 515 kts | 126° |
| 2026-05-08 00:54 | 32.28775 | -104.20312 | 34999 ft | 514 kts | 127° |
| 2026-05-08 00:55 | 32.25588 | -104.12770 | 35005 ft | 513 kts | 127° |
| 2026-05-08 00:55 | 32.22401 | -104.05249 | 34928 ft | 512 kts | 127° |
| 2026-05-08 00:56 | 32.19205 | -103.97721 | 34926 ft | 512 kts | 127° |
| 2026-05-08 00:56 | 32.16008 | -103.90201 | 34930 ft | 512 kts | 127° |
| 2026-05-08 00:57 | 32.12804 | -103.82682 | 34919 ft | 512 kts | 127° |
| 2026-05-08 00:57 | 32.09596 | -103.75172 | 34927 ft | 513 kts | 127° |
| 2026-05-08 00:58 | 32.06386 | -103.67673 | 34931 ft | 513 kts | 127° |
| 2026-05-08 00:58 | 32.02601 | -103.60829 | 34904 ft | 483 kts | 141° |
| 2026-05-08 00:58 | 32.00685 | -103.57462 | 34894 ft | 509 kts | 126° |
| 2026-05-08 00:59 | 31.99362 | -103.53525 | 34947 ft | 522 kts | 118° |
| 2026-05-08 00:59 | 31.96770 | -103.45558 | 34941 ft | 517 kts | 126° |
| 2026-05-08 01:00 | 31.93593 | -103.38069 | 34940 ft | 514 kts | 128° |
| 2026-05-08 01:00 | 31.90358 | -103.30547 | 34920 ft | 516 kts | 127° |
| 2026-05-08 01:01 | 31.87211 | -103.22916 | 34940 ft | 522 kts | 124° |
| 2026-05-08 01:01 | 31.84336 | -103.15050 | 34945 ft | 523 kts | 124° |
| 2026-05-08 01:02 | 31.81437 | -103.07190 | 34938 ft | 525 kts | 123° |
| 2026-05-08 01:02 | 31.78582 | -102.99285 | 34941 ft | 526 kts | 123° |
| 2026-05-08 01:03 | 31.75745 | -102.91352 | 34946 ft | 526 kts | 123° |
| 2026-05-08 01:03 | 31.72904 | -102.83426 | 34945 ft | 526 kts | 123° |
| 2026-05-08 01:04 | 31.70091 | -102.75496 | 34903 ft | 529 kts | 121° |
| 2026-05-08 01:04 | 31.67546 | -102.67364 | 34949 ft | 530 kts | 120° |
| 2026-05-08 01:05 | 31.64942 | -102.59281 | 34969 ft | 528 kts | 121° |
| 2026-05-08 01:05 | 31.62224 | -102.51286 | 34958 ft | 527 kts | 122° |
| 2026-05-08 01:06 | 31.59464 | -102.43325 | 34965 ft | 527 kts | 122° |
| 2026-05-08 01:06 | 31.56699 | -102.35368 | 34970 ft | 528 kts | 122° |
| 2026-05-08 01:07 | 31.53937 | -102.27395 | 34980 ft | 528 kts | 122° |
| 2026-05-08 01:07 | 31.51176 | -102.19416 | 34980 ft | 528 kts | 122° |
| 2026-05-08 01:08 | 31.48429 | -102.11479 | 34982 ft | 528 kts | 122° |
| 2026-05-08 01:08 | 31.45673 | -102.03521 | 34980 ft | 527 kts | 122° |
| 2026-05-08 01:09 | 31.42919 | -101.95577 | 34997 ft | 527 kts | 122° |
| 2026-05-08 01:09 | 31.40163 | -101.87627 | 35007 ft | 527 kts | 122° |
| 2026-05-08 01:10 | 31.37409 | -101.79678 | 35006 ft | 527 kts | 122° |
| 2026-05-08 01:10 | 31.34657 | -101.71732 | 35011 ft | 527 kts | 122° |
| 2026-05-08 01:11 | 31.31695 | -101.63975 | 34965 ft | 508 kts | 135° |
| 2026-05-08 01:11 | 31.27561 | -101.57390 | 35023 ft | 508 kts | 133° |
| 2026-05-08 01:12 | 31.24208 | -101.49966 | 35019 ft | 523 kts | 124° |
| 2026-05-08 01:12 | 31.21255 | -101.42182 | 35025 ft | 524 kts | 124° |
| 2026-05-08 01:13 | 31.18447 | -101.34285 | 34993 ft | 536 kts | 114° |
| 2026-05-08 01:13 | 31.17086 | -101.25620 | 35034 ft | 546 kts | 108° |
| 2026-05-08 01:14 | 31.15624 | -101.16945 | 35027 ft | 544 kts | 109° |
| 2026-05-08 01:14 | 31.14243 | -101.08292 | 35024 ft | 547 kts | 107° |
| 2026-05-08 01:15 | 31.12996 | -100.99528 | 35028 ft | 547 kts | 107° |
| 2026-05-08 01:15 | 31.11749 | -100.90771 | 35029 ft | 547 kts | 107° |
| 2026-05-08 01:16 | 31.10499 | -100.82010 | 35025 ft | 547 kts | 107° |
| 2026-05-08 01:16 | 31.09249 | -100.73248 | 35030 ft | 547 kts | 107° |
| 2026-05-08 01:17 | 31.07996 | -100.64503 | 35012 ft | 547 kts | 107° |
| 2026-05-08 01:17 | 31.06733 | -100.55748 | 35021 ft | 547 kts | 106° |
| 2026-05-08 01:18 | 31.05466 | -100.46988 | 35037 ft | 548 kts | 106° |
| 2026-05-08 01:18 | 31.04194 | -100.38215 | 35031 ft | 549 kts | 106° |
| 2026-05-08 01:19 | 31.02912 | -100.29437 | 35036 ft | 549 kts | 106° |
| 2026-05-08 01:19 | 31.01625 | -100.20671 | 35033 ft | 549 kts | 107° |
| 2026-05-08 01:20 | 31.00329 | -100.11892 | 35027 ft | 550 kts | 106° |
| 2026-05-08 01:20 | 30.99037 | -100.03165 | 35033 ft | 550 kts | 107° |
| 2026-05-08 01:21 | 30.97729 | -99.94379 | 35041 ft | 550 kts | 107° |
| 2026-05-08 01:21 | 30.96417 | -99.85614 | 35041 ft | 550 kts | 107° |
| 2026-05-08 01:22 | 30.95096 | -99.76829 | 35049 ft | 550 kts | 107° |
| 2026-05-08 01:22 | 30.93772 | -99.68063 | 35055 ft | 550 kts | 107° |
| 2026-05-08 01:23 | 30.92439 | -99.59284 | 35042 ft | 550 kts | 107° |
| 2026-05-08 01:23 | 30.91103 | -99.50522 | 35037 ft | 549 kts | 107° |
| 2026-05-08 01:24 | 30.89760 | -99.41764 | 35015 ft | 550 kts | 106° |
| 2026-05-08 01:24 | 30.88412 | -99.33009 | 35041 ft | 550 kts | 106° |
| 2026-05-08 01:25 | 30.87057 | -99.24240 | 35047 ft | 550 kts | 106° |
| 2026-05-08 01:25 | 30.85696 | -99.15474 | 35041 ft | 550 kts | 106° |
| 2026-05-08 01:26 | 30.84327 | -99.06706 | 35033 ft | 551 kts | 106° |
| 2026-05-08 01:26 | 30.82947 | -98.97917 | 35046 ft | 553 kts | 106° |
| 2026-05-08 01:27 | 30.81569 | -98.89162 | 35044 ft | 553 kts | 106° |
| 2026-05-08 01:27 | 30.80200 | -98.80354 | 35044 ft | 555 kts | 104° |
| 2026-05-08 01:28 | 30.79371 | -98.71389 | 35028 ft | 558 kts | 101° |
| 2026-05-08 01:28 | 30.78595 | -98.62395 | 35043 ft | 559 kts | 101° |
| 2026-05-08 01:29 | 30.77854 | -98.53381 | 35044 ft | 560 kts | 100° |
| 2026-05-08 01:29 | 30.77181 | -98.44341 | 35044 ft | 560 kts | 100° |
| 2026-05-08 01:30 | 30.76531 | -98.35637 | 35047 ft | 560 kts | 100° |
| 2026-05-08 01:30 | 30.75857 | -98.26649 | 35043 ft | 562 kts | 100° |
| 2026-05-08 01:31 | 30.75176 | -98.17597 | 35047 ft | 562 kts | 100° |
| 2026-05-08 01:31 | 30.74490 | -98.08541 | 35044 ft | 562 kts | 100° |
| 2026-05-08 01:32 | 30.73797 | -97.99487 | 35048 ft | 562 kts | 100° |
| 2026-05-08 01:32 | 30.73097 | -97.90422 | 35049 ft | 563 kts | 100° |
| 2026-05-08 01:33 | 30.72390 | -97.81357 | 35051 ft | 563 kts | 100° |
| 2026-05-08 01:33 | 30.71677 | -97.72287 | 35048 ft | 563 kts | 100° |
| 2026-05-08 01:34 | 30.70959 | -97.63234 | 35052 ft | 563 kts | 100° |
| 2026-05-08 01:34 | 30.70233 | -97.54169 | 35055 ft | 564 kts | 100° |
| 2026-05-08 01:35 | 30.69505 | -97.45151 | 35072 ft | 564 kts | 100° |
| 2026-05-08 01:35 | 30.68766 | -97.36078 | 35072 ft | 564 kts | 100° |
| 2026-05-08 01:36 | 30.68021 | -97.27014 | 35066 ft | 564 kts | 100° |
| 2026-05-08 01:36 | 30.67269 | -97.17943 | 35066 ft | 564 kts | 100° |
| 2026-05-08 01:37 | 30.66512 | -97.08882 | 35062 ft | 564 kts | 101° |
| 2026-05-08 01:37 | 30.65748 | -96.99823 | 35061 ft | 564 kts | 101° |
| 2026-05-08 01:38 | 30.64979 | -96.90765 | 35057 ft | 564 kts | 101° |
| 2026-05-08 01:38 | 30.64202 | -96.81705 | 35052 ft | 564 kts | 101° |
| 2026-05-08 01:39 | 30.63417 | -96.72632 | 35054 ft | 565 kts | 101° |
| 2026-05-08 01:39 | 30.62628 | -96.63566 | 35054 ft | 565 kts | 101° |
| 2026-05-08 01:40 | 30.61891 | -96.55041 | 35038 ft | 565 kts | 100° |
| 2026-05-08 01:40 | 30.61296 | -96.48046 | 35037 ft | 565 kts | 100° |
| 2026-05-08 01:41 | 30.60526 | -96.39490 | 35026 ft | 563 kts | 103° |
| 2026-05-08 01:41 | 30.58862 | -96.31276 | 34976 ft | 545 kts | 123° |
| 2026-05-08 01:41 | 30.57068 | -96.27785 | 34967 ft | 522 kts | 139° |
| 2026-05-08 01:42 | 30.54674 | -96.25080 | 34994 ft | 497 kts | 154° |
| 2026-05-08 01:42 | 30.52071 | -96.22804 | 35055 ft | 508 kts | 147° |
| 2026-05-08 01:42 | 30.49852 | -96.19843 | 35017 ft | 528 kts | 130° |
| 2026-05-08 01:42 | 30.48253 | -96.16229 | 35052 ft | 542 kts | 119° |
| 2026-05-08 01:43 | 30.46965 | -96.12359 | 35039 ft | 548 kts | 118° |
| 2026-05-08 01:43 | 30.44191 | -96.04738 | 34939 ft | 545 kts | 123° |
| 2026-05-08 01:44 | 30.41016 | -95.97332 | 34884 ft | 544 kts | 125° |
| 2026-05-08 01:44 | 30.39244 | -95.94096 | 34835 ft | 526 kts | 140° |
| 2026-05-08 01:44 | 30.36803 | -95.91435 | 34826 ft | 499 kts | 156° |
| 2026-05-08 01:44 | 30.34001 | -95.89644 | 34883 ft | 480 kts | 167° |
| 2026-05-08 01:45 | 30.30900 | -95.88264 | 34921 ft | 476 kts | 171° |
| 2026-05-08 01:45 | 30.24740 | -95.85135 | 34877 ft | 495 kts | 158° |
| 2026-05-08 01:45 | 30.21893 | -95.82815 | 34887 ft | 509 kts | 149° |
| 2026-05-08 01:46 | 30.19454 | -95.80168 | 34896 ft | 519 kts | 141° |
| 2026-05-08 01:46 | 30.15008 | -95.73428 | 34960 ft | 535 kts | 130° |
| 2026-05-08 01:47 | 30.11370 | -95.66221 | 34961 ft | 542 kts | 126° |
| 2026-05-08 01:47 | 30.07852 | -95.58861 | 35008 ft | 542 kts | 127° |
| 2026-05-08 01:48 | 30.02328 | -95.47463 | 35009 ft | 542 kts | 127° |
| 2026-05-08 01:48 | 29.98640 | -95.39881 | 35003 ft | 541 kts | 127° |
| 2026-05-08 01:49 | 29.94945 | -95.32307 | 34998 ft | 541 kts | 127° |
| 2026-05-08 01:49 | 29.93231 | -95.28443 | 34950 ft | 550 kts | 115° |
| 2026-05-08 01:49 | 29.92332 | -95.24136 | 34928 ft | 559 kts | 98° |
| 2026-05-08 01:50 | 29.92430 | -95.19645 | 34958 ft | 565 kts | 81° |
| 2026-05-08 01:50 | 29.93325 | -95.15230 | 35043 ft | 566 kts | 80° |
| 2026-05-08 01:50 | 29.93680 | -95.10721 | 35010 ft | 562 kts | 97° |
| 2026-05-08 01:50 | 29.93144 | -95.06325 | 35044 ft | 554 kts | 107° |
| 2026-05-08 01:51 | 29.91476 | -94.97604 | 35054 ft | 560 kts | 105° |
| 2026-05-08 01:51 | 29.90411 | -94.89227 | 35014 ft | 563 kts | 101° |
| 2026-05-08 01:52 | 29.89560 | -94.80780 | 35009 ft | 564 kts | 101° |
| 2026-05-08 01:52 | 29.88618 | -94.71870 | 35002 ft | 563 kts | 101° |
| 2026-05-08 01:53 | 29.87620 | -94.62912 | 35004 ft | 563 kts | 101° |
| 2026-05-08 01:53 | 29.86675 | -94.54537 | 35004 ft | 563 kts | 101° |
| 2026-05-08 01:54 | 29.85666 | -94.45589 | 35003 ft | 563 kts | 101° |
| 2026-05-08 01:54 | 29.84662 | -94.36634 | 35003 ft | 563 kts | 101° |
| 2026-05-08 01:55 | 29.83661 | -94.27687 | 35006 ft | 563 kts | 101° |
| 2026-05-08 01:55 | 29.82664 | -94.18741 | 34997 ft | 563 kts | 101° |
| 2026-05-08 01:56 | 29.81668 | -94.09802 | 35007 ft | 563 kts | 101° |
| 2026-05-08 01:56 | 29.80675 | -94.00871 | 35007 ft | 562 kts | 101° |
| 2026-05-08 01:57 | 29.79682 | -93.91939 | 35007 ft | 562 kts | 100° |
| 2026-05-08 01:57 | 29.78687 | -93.83007 | 35007 ft | 562 kts | 101° |
| 2026-05-08 01:58 | 29.77698 | -93.74083 | 35018 ft | 562 kts | 101° |
| 2026-05-08 01:58 | 29.76709 | -93.65171 | 35008 ft | 559 kts | 101° |
| 2026-05-08 01:59 | 29.75726 | -93.56319 | 35017 ft | 558 kts | 101° |
| 2026-05-08 01:59 | 29.74745 | -93.47468 | 35021 ft | 557 kts | 101° |
| 2026-05-08 02:00 | 29.73773 | -93.38677 | 35025 ft | 557 kts | 101° |
| 2026-05-08 02:00 | 29.72799 | -93.29834 | 35028 ft | 558 kts | 101° |
| 2026-05-08 02:01 | 29.71825 | -93.20980 | 35026 ft | 557 kts | 101° |
| 2026-05-08 02:01 | 29.70853 | -93.12133 | 35027 ft | 557 kts | 101° |
| 2026-05-08 02:02 | 29.69884 | -93.03290 | 35027 ft | 557 kts | 100° |
| 2026-05-08 02:02 | 29.68913 | -92.94425 | 35029 ft | 559 kts | 100° |
| 2026-05-08 02:03 | 29.67945 | -92.85565 | 35023 ft | 559 kts | 100° |
| 2026-05-08 02:03 | 29.66987 | -92.76696 | 35031 ft | 559 kts | 100° |
| 2026-05-08 02:04 | 29.66045 | -92.67828 | 35024 ft | 559 kts | 100° |
| 2026-05-08 02:04 | 29.65108 | -92.58945 | 35021 ft | 560 kts | 100° |
| 2026-05-08 02:05 | 29.64169 | -92.50061 | 35022 ft | 560 kts | 100° |
| 2026-05-08 02:05 | 29.63232 | -92.41175 | 35023 ft | 560 kts | 102° |
| 2026-05-08 02:06 | 29.61652 | -92.32471 | 35023 ft | 555 kts | 109° |
| 2026-05-08 02:06 | 29.59664 | -92.23964 | 35017 ft | 555 kts | 109° |
| 2026-05-08 02:07 | 29.57637 | -92.15406 | 35017 ft | 556 kts | 109° |
| 2026-05-08 02:07 | 29.55662 | -92.06803 | 35023 ft | 556 kts | 109° |
| 2026-05-08 02:08 | 29.53758 | -91.98187 | 35019 ft | 557 kts | 108° |
| 2026-05-08 02:08 | 29.51915 | -91.89557 | 35019 ft | 556 kts | 107° |
| 2026-05-08 02:09 | 29.50124 | -91.80920 | 35020 ft | 555 kts | 107° |
| 2026-05-08 02:09 | 29.48378 | -91.72281 | 35019 ft | 555 kts | 107° |
| 2026-05-08 02:10 | 29.46669 | -91.63651 | 35020 ft | 555 kts | 106° |
| 2026-05-08 02:10 | 29.44985 | -91.55004 | 35021 ft | 555 kts | 106° |
| 2026-05-08 02:11 | 29.43324 | -91.46349 | 35018 ft | 555 kts | 106° |
| 2026-05-08 02:11 | 29.41680 | -91.37691 | 35020 ft | 555 kts | 106° |
| 2026-05-08 02:12 | 29.40047 | -91.29038 | 35019 ft | 556 kts | 106° |
| 2026-05-08 02:12 | 29.38414 | -91.20360 | 35024 ft | 556 kts | 106° |
| 2026-05-08 02:13 | 29.36797 | -91.11759 | 35028 ft | 556 kts | 106° |
| 2026-05-08 02:13 | 29.35157 | -91.03039 | 35021 ft | 556 kts | 106° |
| 2026-05-08 02:14 | 29.33537 | -90.94434 | 35019 ft | 556 kts | 106° |
| 2026-05-08 02:14 | 29.31903 | -90.85766 | 35020 ft | 556 kts | 106° |
| 2026-05-08 02:15 | 29.30268 | -90.77106 | 35022 ft | 556 kts | 106° |
| 2026-05-08 02:15 | 29.28629 | -90.68451 | 35021 ft | 556 kts | 106° |
| 2026-05-08 02:16 | 29.26982 | -90.59793 | 35023 ft | 556 kts | 106° |
| 2026-05-08 02:16 | 29.25334 | -90.51146 | 35026 ft | 556 kts | 106° |
| 2026-05-08 02:17 | 29.23686 | -90.42513 | 35017 ft | 555 kts | 106° |
| 2026-05-08 02:17 | 29.22034 | -90.33890 | 35027 ft | 555 kts | 106° |
| 2026-05-08 02:18 | 29.20379 | -90.25269 | 35027 ft | 554 kts | 106° |
| 2026-05-08 02:18 | 29.18716 | -90.16653 | 35026 ft | 554 kts | 107° |
| 2026-05-08 02:19 | 29.16959 | -90.08067 | 35022 ft | 554 kts | 107° |
| 2026-05-08 02:19 | 29.14896 | -89.99611 | 35027 ft | 551 kts | 111° |
| 2026-05-08 02:20 | 29.12833 | -89.91151 | 35024 ft | 553 kts | 108° |
| 2026-05-08 02:20 | 29.10833 | -89.82665 | 35025 ft | 553 kts | 109° |
| 2026-05-08 02:21 | 29.08767 | -89.74203 | 35025 ft | 553 kts | 109° |
| 2026-05-08 02:21 | 29.06712 | -89.65743 | 35029 ft | 553 kts | 109° |
| 2026-05-08 02:22 | 29.04666 | -89.57270 | 35030 ft | 553 kts | 109° |
| 2026-05-08 02:22 | 29.02624 | -89.48804 | 35030 ft | 553 kts | 109° |
| 2026-05-08 02:23 | 29.00582 | -89.40344 | 35029 ft | 553 kts | 109° |
| 2026-05-08 02:23 | 28.98539 | -89.31880 | 35029 ft | 553 kts | 109° |
| 2026-05-08 02:24 | 28.96510 | -89.23467 | 35030 ft | 553 kts | 109° |
| 2026-05-08 02:24 | 28.94456 | -89.14952 | 35025 ft | 552 kts | 109° |
| 2026-05-08 02:25 | 28.92440 | -89.06575 | 35025 ft | 551 kts | 106° |
| 2026-05-08 02:25 | 28.91967 | -89.02151 | 34968 ft | 555 kts | 90° |
| 2026-05-08 02:25 | 28.92194 | -88.97826 | 35038 ft | 556 kts | 87° |
| 2026-05-08 02:26 | 28.91925 | -88.89032 | 35032 ft | 553 kts | 102° |
| 2026-05-08 02:26 | 28.90370 | -88.80458 | 35030 ft | 552 kts | 106° |
| 2026-05-08 02:27 | 28.88674 | -88.71909 | 35027 ft | 551 kts | 108° |
| 2026-05-08 02:27 | 28.86484 | -88.63572 | 35028 ft | 548 kts | 112° |
| 2026-05-08 02:28 | 28.84132 | -88.55303 | 35028 ft | 549 kts | 111° |
| 2026-05-08 02:28 | 28.81847 | -88.46988 | 35029 ft | 549 kts | 111° |
| 2026-05-08 02:29 | 28.79929 | -88.40091 | 35028 ft | 549 kts | 111° |
| 2026-05-08 02:29 | 28.77611 | -88.31809 | 35030 ft | 549 kts | 111° |
| 2026-05-08 02:30 | 28.75288 | -88.23517 | 35033 ft | 549 kts | 111° |
| 2026-05-08 02:30 | 28.72958 | -88.15227 | 35034 ft | 549 kts | 111° |
| 2026-05-08 02:31 | 28.70611 | -88.06946 | 35031 ft | 549 kts | 112° |
| 2026-05-08 02:31 | 28.68196 | -87.98715 | 35030 ft | 548 kts | 112° |
| 2026-05-08 02:32 | 28.65776 | -87.90468 | 35030 ft | 548 kts | 112° |
| 2026-05-08 02:32 | 28.63379 | -87.82238 | 35023 ft | 548 kts | 112° |
| 2026-05-08 02:33 | 28.60977 | -87.74008 | 35030 ft | 547 kts | 112° |
| 2026-05-08 02:33 | 28.58576 | -87.65807 | 35031 ft | 547 kts | 112° |
| 2026-05-08 02:34 | 28.56182 | -87.57640 | 35031 ft | 547 kts | 112° |
| 2026-05-08 02:34 | 28.53769 | -87.49433 | 35033 ft | 547 kts | 112° |
| 2026-05-08 02:35 | 28.51352 | -87.41232 | 35032 ft | 547 kts | 112° |
| 2026-05-08 02:35 | 28.48931 | -87.33038 | 35036 ft | 547 kts | 112° |
| 2026-05-08 02:36 | 28.46506 | -87.24851 | 35032 ft | 547 kts | 112° |
| 2026-05-08 02:36 | 28.44075 | -87.16661 | 35034 ft | 547 kts | 112° |
| 2026-05-08 02:37 | 28.41639 | -87.08478 | 35036 ft | 547 kts | 112° |
| 2026-05-08 02:37 | 28.39199 | -87.00301 | 35040 ft | 547 kts | 112° |
| 2026-05-08 02:38 | 28.36752 | -86.92119 | 35033 ft | 546 kts | 112° |
| 2026-05-08 02:38 | 28.34307 | -86.83961 | 35037 ft | 545 kts | 112° |
| 2026-05-08 02:39 | 28.31860 | -86.75823 | 35034 ft | 544 kts | 112° |
| 2026-05-08 02:39 | 28.29452 | -86.67693 | 35044 ft | 543 kts | 111° |
| 2026-05-08 02:40 | 28.27095 | -86.59547 | 35033 ft | 543 kts | 111° |
| 2026-05-08 02:40 | 28.24743 | -86.51403 | 35045 ft | 543 kts | 111° |
| 2026-05-08 02:41 | 28.22416 | -86.43241 | 35039 ft | 543 kts | 110° |
| 2026-05-08 02:41 | 28.20110 | -86.35148 | 35037 ft | 544 kts | 111° |
| 2026-05-08 02:42 | 28.17781 | -86.26991 | 35050 ft | 544 kts | 111° |
| 2026-05-08 02:42 | 28.15450 | -86.18844 | 35039 ft | 544 kts | 111° |
| 2026-05-08 02:43 | 28.13114 | -86.10694 | 35058 ft | 543 kts | 111° |
| 2026-05-08 02:43 | 28.10776 | -86.02562 | 35038 ft | 543 kts | 111° |
| 2026-05-08 02:44 | 28.08431 | -85.94426 | 35060 ft | 543 kts | 111° |
| 2026-05-08 02:44 | 28.06080 | -85.86288 | 35042 ft | 543 kts | 111° |
| 2026-05-08 02:45 | 28.03731 | -85.78175 | 35040 ft | 543 kts | 111° |
| 2026-05-08 02:45 | 28.01372 | -85.70051 | 35048 ft | 543 kts | 111° |
| 2026-05-08 02:46 | 27.99009 | -85.61933 | 35036 ft | 543 kts | 111° |
| 2026-05-08 02:46 | 27.96651 | -85.53845 | 35046 ft | 542 kts | 111° |
| 2026-05-08 02:47 | 27.94284 | -85.45752 | 35045 ft | 541 kts | 111° |
| 2026-05-08 02:47 | 27.91913 | -85.37667 | 35047 ft | 542 kts | 111° |
| 2026-05-08 02:48 | 27.89539 | -85.29583 | 35045 ft | 542 kts | 110° |
| 2026-05-08 02:48 | 27.87755 | -85.21303 | 35048 ft | 544 kts | 102° |
| 2026-05-08 02:49 | 27.86314 | -85.12899 | 35044 ft | 544 kts | 103° |
| 2026-05-08 02:49 | 27.84800 | -85.04521 | 35043 ft | 544 kts | 103° |
| 2026-05-08 02:50 | 27.83366 | -84.96117 | 35051 ft | 545 kts | 102° |
| 2026-05-08 02:50 | 27.81996 | -84.87680 | 35041 ft | 546 kts | 98° |
| 2026-05-08 02:51 | 27.81267 | -84.79138 | 35052 ft | 547 kts | 95° |
| 2026-05-08 02:51 | 27.80662 | -84.70577 | 35047 ft | 547 kts | 96° |
| 2026-05-08 02:52 | 27.79920 | -84.62091 | 35047 ft | 547 kts | 97° |
| 2026-05-08 02:52 | 27.78995 | -84.53570 | 35049 ft | 546 kts | 98° |
| 2026-05-08 02:53 | 27.77919 | -84.45086 | 35047 ft | 546 kts | 100° |
| 2026-05-08 02:53 | 27.76714 | -84.36606 | 35052 ft | 546 kts | 101° |
| 2026-05-08 02:54 | 27.75403 | -84.28162 | 35049 ft | 546 kts | 102° |
| 2026-05-08 02:54 | 27.73997 | -84.19746 | 35049 ft | 546 kts | 102° |
| 2026-05-08 02:55 | 27.71751 | -84.07137 | 35054 ft | 546 kts | 103° |
| 2026-05-08 02:56 | 27.70186 | -83.98753 | 35058 ft | 546 kts | 103° |
| 2026-05-08 02:56 | 27.68577 | -83.90378 | 35055 ft | 546 kts | 104° |
| 2026-05-08 02:57 | 27.66949 | -83.82085 | 35055 ft | 545 kts | 104° |
| 2026-05-08 02:57 | 27.65287 | -83.73752 | 35059 ft | 545 kts | 104° |
| 2026-05-08 02:58 | 27.63605 | -83.65431 | 35061 ft | 544 kts | 104° |
| 2026-05-08 02:58 | 27.61903 | -83.57107 | 35060 ft | 544 kts | 104° |
| 2026-05-08 02:59 | 27.60189 | -83.48801 | 35060 ft | 544 kts | 104° |
| 2026-05-08 02:59 | 27.58457 | -83.40507 | 35060 ft | 543 kts | 105° |
| 2026-05-08 03:00 | 27.56721 | -83.32217 | 35060 ft | 543 kts | 105° |
| 2026-05-08 03:00 | 27.54985 | -83.23929 | 35061 ft | 543 kts | 105° |
| 2026-05-08 03:01 | 27.53246 | -83.15636 | 35059 ft | 543 kts | 105° |
| 2026-05-08 03:01 | 27.51501 | -83.07359 | 35057 ft | 543 kts | 105° |
| 2026-05-08 03:02 | 27.49750 | -82.99077 | 35053 ft | 543 kts | 105° |
| 2026-05-08 03:02 | 27.48062 | -82.91085 | 35053 ft | 543 kts | 105° |
| 2026-05-08 03:03 | 27.46314 | -82.82809 | 35046 ft | 543 kts | 105° |
| 2026-05-08 03:03 | 27.44562 | -82.74534 | 35046 ft | 543 kts | 105° |
| 2026-05-08 03:04 | 27.42830 | -82.66322 | 35042 ft | 542 kts | 105° |
| 2026-05-08 03:04 | 27.41569 | -82.62360 | 34988 ft | 535 kts | 120° |
| 2026-05-08 03:04 | 27.39981 | -82.58569 | 35051 ft | 538 kts | 113° |
| 2026-05-08 03:05 | 27.37159 | -82.50793 | 34982 ft | 532 kts | 128° |
| 2026-05-08 03:05 | 27.34765 | -82.47708 | 34974 ft | 519 kts | 146° |
| 2026-05-08 03:05 | 27.31785 | -82.45546 | 35013 ft | 504 kts | 163° |
| 2026-05-08 03:05 | 27.28477 | -82.44450 | 35035 ft | 489 kts | 180° |
| 2026-05-08 03:06 | 27.25122 | -82.44197 | 35080 ft | 487 kts | 179° |
| 2026-05-08 03:06 | 27.21777 | -82.43306 | 35040 ft | 502 kts | 162° |
| 2026-05-08 03:06 | 27.18698 | -82.41358 | 35075 ft | 512 kts | 148° |
| 2026-05-08 03:07 | 27.13074 | -82.36324 | 35098 ft | 519 kts | 147° |
| 2026-05-08 03:07 | 27.07201 | -82.31640 | 35053 ft | 517 kts | 152° |
| 2026-05-08 03:08 | 27.01145 | -82.27293 | 35048 ft | 516 kts | 153° |
| 2026-05-08 03:08 | 26.95089 | -82.22966 | 35044 ft | 517 kts | 152° |
| 2026-05-08 03:09 | 26.89057 | -82.18596 | 35059 ft | 517 kts | 152° |
| 2026-05-08 03:09 | 26.83030 | -82.14203 | 35045 ft | 517 kts | 152° |
| 2026-05-08 03:09 | 26.80054 | -82.12033 | 34649 ft | 514 kts | 152° |
| 2026-05-08 03:10 | 26.77049 | -82.09837 | 34121 ft | 506 kts | 152° |
| 2026-05-08 03:10 | 26.74148 | -82.07720 | 33444 ft | 504 kts | 152° |
| 2026-05-08 03:10 | 26.71214 | -82.05582 | 32782 ft | 503 kts | 152° |
| 2026-05-08 03:10 | 26.68286 | -82.03451 | 32146 ft | 503 kts | 152° |
| 2026-05-08 03:11 | 26.65336 | -82.01308 | 31518 ft | 504 kts | 152° |
| 2026-05-08 03:11 | 26.62393 | -81.99171 | 30898 ft | 505 kts | 151° |
| 2026-05-08 03:11 | 26.59450 | -81.97035 | 30291 ft | 506 kts | 151° |
| 2026-05-08 03:11 | 26.56499 | -81.94894 | 29623 ft | 507 kts | 151° |
| 2026-05-08 03:12 | 26.53531 | -81.92742 | 28931 ft | 508 kts | 151° |
| 2026-05-08 03:12 | 26.50571 | -81.90594 | 28257 ft | 503 kts | 151° |
| 2026-05-08 03:12 | 26.47676 | -81.88490 | 27609 ft | 493 kts | 151° |
| 2026-05-08 03:12 | 26.44820 | -81.86414 | 26967 ft | 486 kts | 151° |
| 2026-05-08 03:13 | 26.42001 | -81.84368 | 26339 ft | 481 kts | 151° |
| 2026-05-08 03:13 | 26.39209 | -81.82343 | 25728 ft | 477 kts | 151° |
| 2026-05-08 03:13 | 26.36437 | -81.80335 | 25125 ft | 472 kts | 150° |
| 2026-05-08 03:13 | 26.33701 | -81.78353 | 24539 ft | 468 kts | 150° |
| 2026-05-08 03:14 | 26.30974 | -81.76380 | 23957 ft | 464 kts | 150° |
| 2026-05-08 03:14 | 26.28274 | -81.74427 | 23337 ft | 460 kts | 150° |
| 2026-05-08 03:14 | 26.25610 | -81.72501 | 22674 ft | 456 kts | 150° |
| 2026-05-08 03:14 | 26.22989 | -81.70606 | 22023 ft | 451 kts | 150° |
| 2026-05-08 03:15 | 26.20342 | -81.68694 | 21376 ft | 446 kts | 150° |
| 2026-05-08 03:15 | 26.17751 | -81.66823 | 20737 ft | 441 kts | 149° |
| 2026-05-08 03:15 | 26.15224 | -81.64998 | 20132 ft | 436 kts | 149° |
| 2026-05-08 03:15 | 26.12688 | -81.63168 | 19562 ft | 432 kts | 149° |
| 2026-05-08 03:16 | 26.10153 | -81.61340 | 19042 ft | 428 kts | 149° |
| 2026-05-08 03:16 | 26.07690 | -81.59564 | 18533 ft | 424 kts | 149° |
| 2026-05-08 03:16 | 26.05224 | -81.57786 | 17974 ft | 420 kts | 149° |
| 2026-05-08 03:16 | 26.03571 | -81.56596 | 17570 ft | 417 kts | 148° |
| 2026-05-08 03:17 | 26.01307 | -81.54963 | 17038 ft | 413 kts | 148° |
| 2026-05-08 03:17 | 25.98142 | -81.52680 | 16347 ft | 404 kts | 148° |
| 2026-05-08 03:17 | 25.95805 | -81.50993 | 16167 ft | 401 kts | 148° |
| 2026-05-08 03:17 | 25.93603 | -81.49404 | 16063 ft | 399 kts | 148° |
| 2026-05-08 03:18 | 25.91355 | -81.47601 | 16012 ft | 399 kts | 139° |
| 2026-05-08 03:18 | 25.90039 | -81.46116 | 16002 ft | 399 kts | 130° |
| 2026-05-08 03:18 | 25.88491 | -81.43560 | 15983 ft | 399 kts | 117° |
| 2026-05-08 03:18 | 25.87587 | -81.40669 | 15971 ft | 399 kts | 98° |
| 2026-05-08 03:19 | 25.87505 | -81.37586 | 15659 ft | 399 kts | 85° |
| 2026-05-08 03:19 | 25.87814 | -81.34537 | 15191 ft | 396 kts | 82° |
| 2026-05-08 03:19 | 25.88168 | -81.31552 | 14732 ft | 393 kts | 83° |
| 2026-05-08 03:19 | 25.88456 | -81.28542 | 14264 ft | 390 kts | 85° |
| 2026-05-08 03:20 | 25.88647 | -81.25563 | 13831 ft | 386 kts | 87° |
| 2026-05-08 03:20 | 25.88745 | -81.22593 | 13332 ft | 382 kts | 89° |
| 2026-05-08 03:20 | 25.88763 | -81.19665 | 12834 ft | 379 kts | 91° |
| 2026-05-08 03:20 | 25.88712 | -81.16745 | 12343 ft | 376 kts | 92° |
| 2026-05-08 03:21 | 25.88606 | -81.13866 | 11854 ft | 372 kts | 94° |
| 2026-05-08 03:21 | 25.88456 | -81.11011 | 11376 ft | 368 kts | 95° |
| 2026-05-08 03:21 | 25.88270 | -81.08193 | 10908 ft | 364 kts | 95° |
| 2026-05-08 03:21 | 25.88056 | -81.05404 | 10452 ft | 360 kts | 96° |
| 2026-05-08 03:22 | 25.87825 | -81.02707 | 10309 ft | 337 kts | 96° |
| 2026-05-08 03:22 | 25.87597 | -81.00231 | 10302 ft | 309 kts | 97° |
| 2026-05-08 03:22 | 25.87370 | -80.97915 | 10305 ft | 300 kts | 97° |
| 2026-05-08 03:22 | 25.87135 | -80.95618 | 10300 ft | 299 kts | 97° |
| 2026-05-08 03:23 | 25.86892 | -80.93326 | 10228 ft | 299 kts | 98° |
| 2026-05-08 03:23 | 25.86643 | -80.91037 | 10063 ft | 299 kts | 98° |
| 2026-05-08 03:23 | 25.86389 | -80.88749 | 9583 ft | 298 kts | 97° |
| 2026-05-08 03:23 | 25.86137 | -80.86475 | 9071 ft | 295 kts | 97° |
| 2026-05-08 03:24 | 25.85908 | -80.84351 | 8613 ft | 293 kts | 97° |
| 2026-05-08 03:24 | 25.85684 | -80.82239 | 8149 ft | 289 kts | 97° |
| 2026-05-08 03:24 | 25.85452 | -80.80046 | 7677 ft | 284 kts | 97° |
| 2026-05-08 03:24 | 25.85221 | -80.77881 | 7196 ft | 281 kts | 97° |
| 2026-05-08 03:25 | 25.84992 | -80.75767 | 6745 ft | 278 kts | 97° |
| 2026-05-08 03:25 | 25.84761 | -80.73654 | 6334 ft | 264 kts | 97° |
| 2026-05-08 03:25 | 25.84555 | -80.71778 | 5820 ft | 254 kts | 97° |
| 2026-05-08 03:25 | 25.84342 | -80.69864 | 5324 ft | 245 kts | 97° |
| 2026-05-08 03:26 | 25.84134 | -80.68018 | 4845 ft | 236 kts | 97° |
| 2026-05-08 03:26 | 25.83934 | -80.66259 | 4399 ft | 229 kts | 97° |
| 2026-05-08 03:26 | 25.83662 | -80.64553 | 4183 ft | 225 kts | 107° |
| 2026-05-08 03:26 | 25.83049 | -80.62952 | 4033 ft | 227 kts | 116° |
| 2026-05-08 03:27 | 25.82303 | -80.61405 | 3826 ft | 226 kts | 119° |
| 2026-05-08 03:27 | 25.81527 | -80.59893 | 3593 ft | 226 kts | 120° |
| 2026-05-08 03:27 | 25.80619 | -80.58491 | 3324 ft | 225 kts | 136° |
| 2026-05-08 03:27 | 25.79422 | -80.57378 | 3156 ft | 224 kts | 141° |
| 2026-05-08 03:28 | 25.78254 | -80.56286 | 3034 ft | 210 kts | 138° |
| 2026-05-08 03:28 | 25.77435 | -80.55065 | 2952 ft | 195 kts | 107° |
| 2026-05-08 03:28 | 25.77465 | -80.53587 | 3010 ft | 195 kts | 72° |
| 2026-05-08 03:28 | 25.77845 | -80.52130 | 3192 ft | 200 kts | 81° |
| 2026-05-08 03:29 | 25.77891 | -80.50583 | 3258 ft | 201 kts | 90° |
| 2026-05-08 03:29 | 25.77909 | -80.49031 | 3087 ft | 200 kts | 87° |
| 2026-05-08 03:29 | 25.77981 | -80.47493 | 2835 ft | 201 kts | 86° |
| 2026-05-08 03:29 | 25.78049 | -80.45952 | 2555 ft | 199 kts | 87° |
| 2026-05-08 03:30 | 25.78171 | -80.42868 | 2025 ft | 199 kts | 87° |
| 2026-05-08 03:30 | 25.78292 | -80.39810 | 1513 ft | 198 kts | 88° |
| 2026-05-08 03:31 | 25.78405 | -80.36925 | 1109 ft | 179 kts | 88° |
| 2026-05-08 03:31 | 25.78506 | -80.34379 | 626 ft | 158 kts | 89° |
| 2026-05-08 03:32 | 25.78548 | -80.33156 | 468 ft | 155 kts | 90° |
| 2026-05-08 03:32 | 25.78597 | -80.32004 | 235 ft | 146 kts | 89° |
| 2026-05-08 03:32 | 25.78642 | -80.30885 | 37 ft | 144 kts | 88° |
| 2026-05-08 03:32 | 25.78672 | -80.29907 | 22 ft | 103 kts | 84° |
| 2026-05-08 03:33 | 25.78605 | -80.29362 | 22 ft | 50 kts | 94° |
| 2026-05-08 03:33 | 25.78701 | -80.29113 | 21 ft | 32 kts | 84° |
| 2026-05-08 03:33 | 25.78721 | -80.28878 | 21 ft | 24 kts | 81° |
| 2026-05-08 03:33 | 25.78784 | -80.28710 | 24 ft | 24 kts | 46° |
| 2026-05-08 03:34 | 25.78883 | -80.28617 | 20 ft | 17 kts | 36° |
| 2026-05-08 03:34 | 25.78989 | -80.28532 | 21 ft | 21 kts | 34° |
| 2026-05-08 03:34 | 25.79108 | -80.28446 | 21 ft | 16 kts | 32° |
| 2026-05-08 03:34 | 25.79211 | -80.28394 | 22 ft | 17 kts | 32° |
| 2026-05-08 03:35 | 25.79289 | -80.28323 | 22 ft | 9 kts | 41° |
| 2026-05-08 03:35 | 25.79321 | -80.28261 | 20 ft | 11 kts | 91° |
| 2026-05-08 03:35 | 25.79297 | -80.28223 | 21 ft | 5 kts | 155° |
| 2026-05-08 03:35 | 25.79275 | -80.28211 | 22 ft | 2 kts | 153° |
| 2026-05-08 03:36 | 25.79264 | -80.28205 | 23 ft | 0 kts | 153° |